sensor_id;sensor_type;location;lat;lon;timestamp;P1;durP1;ratioP1;P2;durP2;ratioP2
23140;SDS011;11739;54.750;9.124;2023-07-24T00:00:11;7.20;;;3.55;;
23140;SDS011;11739;54.750;9.124;2023-07-24T00:02:36;8.27;;;3.80;;
23140;SDS011;11739;54.750;9.124;2023-07-24T00:05:02;5.00;;;3.22;;
23140;SDS011;11739;54.750;9.124;2023-07-24T00:07:27;6.13;;;3.28;;
23140;SDS011;11739;54.750;9.124;2023-07-24T00:09:52;6.93;;;3.33;;
23140;SDS011;11739;54.750;9.124;2023-07-24T00:12:18;6.13;;;3.28;;
23140;SDS011;11739;54.750;9.124;2023-07-24T00:14:43;8.13;;;3.30;;
23140;SDS011;11739;54.750;9.124;2023-07-24T00:17:08;10.15;;;3.78;;
23140;SDS011;11739;54.750;9.124;2023-07-24T00:19:33;7.85;;;3.33;;
23140;SDS011;11739;54.750;9.124;2023-07-24T00:21:59;7.45;;;3.78;;
23140;SDS011;11739;54.750;9.124;2023-07-24T00:24:24;8.50;;;3.63;;
23140;SDS011;11739;54.750;9.124;2023-07-24T00:26:49;7.47;;;3.95;;
23140;SDS011;11739;54.750;9.124;2023-07-24T00:29:15;8.45;;;3.70;;
23140;SDS011;11739;54.750;9.124;2023-07-24T00:31:40;8.48;;;3.90;;
23140;SDS011;11739;54.750;9.124;2023-07-24T00:34:05;8.60;;;4.13;;
23140;SDS011;11739;54.750;9.124;2023-07-24T00:36:31;9.50;;;4.22;;
23140;SDS011;11739;54.750;9.124;2023-07-24T00:38:56;10.68;;;3.92;;
23140;SDS011;11739;54.750;9.124;2023-07-24T00:41:21;10.73;;;4.45;;
23140;SDS011;11739;54.750;9.124;2023-07-24T00:43:47;11.07;;;4.25;;
23140;SDS011;11739;54.750;9.124;2023-07-24T00:46:12;12.43;;;4.30;;
23140;SDS011;11739;54.750;9.124;2023-07-24T00:48:38;9.93;;;4.30;;
23140;SDS011;11739;54.750;9.124;2023-07-24T00:51:04;11.50;;;4.72;;
23140;SDS011;11739;54.750;9.124;2023-07-24T00:53:30;9.63;;;4.30;;
23140;SDS011;11739;54.750;9.124;2023-07-24T00:55:55;10.98;;;5.18;;
23140;SDS011;11739;54.750;9.124;2023-07-24T00:58:20;10.38;;;4.65;;
23140;SDS011;11739;54.750;9.124;2023-07-24T01:00:46;12.35;;;4.60;;
23140;SDS011;11739;54.750;9.124;2023-07-24T01:03:11;9.48;;;4.63;;
23140;SDS011;11739;54.750;9.124;2023-07-24T01:05:37;10.88;;;4.80;;
23140;SDS011;11739;54.750;9.124;2023-07-24T01:08:02;11.07;;;4.70;;
23140;SDS011;11739;54.750;9.124;2023-07-24T01:10:27;14.32;;;5.07;;
23140;SDS011;11739;54.750;9.124;2023-07-24T01:15:34;15.73;;;5.93;;
23140;SDS011;11739;54.750;9.124;2023-07-24T01:18:12;13.80;;;5.57;;
23140;SDS011;11739;54.750;9.124;2023-07-24T01:20:39;16.80;;;6.00;;
23140;SDS011;11739;54.750;9.124;2023-07-24T01:26:08;12.23;;;5.67;;
23140;SDS011;11739;54.750;9.124;2023-07-24T01:28:33;15.70;;;5.75;;
23140;SDS011;11739;54.750;9.124;2023-07-24T01:30:58;15.25;;;6.30;;
23140;SDS011;11739;54.750;9.124;2023-07-24T01:33:24;14.27;;;6.05;;
23140;SDS011;11739;54.750;9.124;2023-07-24T01:35:57;12.55;;;5.95;;
23140;SDS011;11739;54.750;9.124;2023-07-24T01:38:24;14.32;;;6.30;;
23140;SDS011;11739;54.750;9.124;2023-07-24T01:40:50;16.30;;;6.95;;
23140;SDS011;11739;54.750;9.124;2023-07-24T01:43:16;11.60;;;6.43;;
23140;SDS011;11739;54.750;9.124;2023-07-24T01:45:42;17.35;;;6.60;;
23140;SDS011;11739;54.750;9.124;2023-07-24T01:48:07;18.02;;;7.47;;
23140;SDS011;11739;54.750;9.124;2023-07-24T01:50:32;17.10;;;6.80;;
23140;SDS011;11739;54.750;9.124;2023-07-24T01:52:58;18.75;;;6.97;;
23140;SDS011;11739;54.750;9.124;2023-07-24T01:55:23;17.85;;;6.43;;
23140;SDS011;11739;54.750;9.124;2023-07-24T01:57:48;14.07;;;5.43;;
23140;SDS011;11739;54.750;9.124;2023-07-24T02:00:14;9.65;;;4.25;;
23140;SDS011;11739;54.750;9.124;2023-07-24T02:02:39;10.73;;;4.32;;
23140;SDS011;11739;54.750;9.124;2023-07-24T02:05:04;6.85;;;3.50;;
23140;SDS011;11739;54.750;9.124;2023-07-24T02:07:30;8.18;;;3.30;;
23140;SDS011;11739;54.750;9.124;2023-07-24T02:09:55;7.53;;;3.00;;
23140;SDS011;11739;54.750;9.124;2023-07-24T02:12:20;6.90;;;2.90;;
23140;SDS011;11739;54.750;9.124;2023-07-24T02:14:46;8.40;;;2.35;;
23140;SDS011;11739;54.750;9.124;2023-07-24T02:17:11;6.22;;;2.30;;
23140;SDS011;11739;54.750;9.124;2023-07-24T02:19:36;9.07;;;2.65;;
23140;SDS011;11739;54.750;9.124;2023-07-24T02:22:02;6.70;;;2.17;;
23140;SDS011;11739;54.750;9.124;2023-07-24T02:24:27;8.88;;;2.30;;
23140;SDS011;11739;54.750;9.124;2023-07-24T02:26:52;8.63;;;2.00;;
23140;SDS011;11739;54.750;9.124;2023-07-24T02:29:18;6.63;;;2.10;;
23140;SDS011;11739;54.750;9.124;2023-07-24T02:31:43;5.85;;;1.90;;
23140;SDS011;11739;54.750;9.124;2023-07-24T02:34:08;6.30;;;1.95;;
23140;SDS011;11739;54.750;9.124;2023-07-24T02:36:33;9.25;;;1.60;;
23140;SDS011;11739;54.750;9.124;2023-07-24T02:38:59;7.47;;;1.70;;
23140;SDS011;11739;54.750;9.124;2023-07-24T02:41:24;4.65;;;1.48;;
23140;SDS011;11739;54.750;9.124;2023-07-24T02:43:49;4.88;;;1.20;;
23140;SDS011;11739;54.750;9.124;2023-07-24T02:46:15;4.72;;;1.40;;
23140;SDS011;11739;54.750;9.124;2023-07-24T02:48:40;4.22;;;1.20;;
23140;SDS011;11739;54.750;9.124;2023-07-24T02:51:05;4.57;;;1.30;;
23140;SDS011;11739;54.750;9.124;2023-07-24T02:53:30;3.53;;;1.17;;
23140;SDS011;11739;54.750;9.124;2023-07-24T02:55:56;4.15;;;1.25;;
23140;SDS011;11739;54.750;9.124;2023-07-24T02:58:21;4.80;;;1.40;;
23140;SDS011;11739;54.750;9.124;2023-07-24T03:00:46;4.25;;;1.20;;
23140;SDS011;11739;54.750;9.124;2023-07-24T03:03:12;4.97;;;1.10;;
23140;SDS011;11739;54.750;9.124;2023-07-24T03:05:37;5.32;;;1.20;;
23140;SDS011;11739;54.750;9.124;2023-07-24T03:08:02;3.30;;;0.90;;
23140;SDS011;11739;54.750;9.124;2023-07-24T03:10:28;3.80;;;1.10;;
23140;SDS011;11739;54.750;9.124;2023-07-24T03:12:55;4.35;;;1.13;;
23140;SDS011;11739;54.750;9.124;2023-07-24T03:15:20;4.53;;;1.33;;
23140;SDS011;11739;54.750;9.124;2023-07-24T03:17:46;5.05;;;1.20;;
23140;SDS011;11739;54.750;9.124;2023-07-24T03:20:15;2.83;;;1.20;;
23140;SDS011;11739;54.750;9.124;2023-07-24T03:22:41;3.80;;;1.20;;
23140;SDS011;11739;54.750;9.124;2023-07-24T03:25:07;4.38;;;1.30;;
23140;SDS011;11739;54.750;9.124;2023-07-24T03:27:33;3.95;;;1.17;;
23140;SDS011;11739;54.750;9.124;2023-07-24T03:29:58;5.43;;;1.38;;
23140;SDS011;11739;54.750;9.124;2023-07-24T03:32:23;2.45;;;1.20;;
23140;SDS011;11739;54.750;9.124;2023-07-24T03:34:49;5.68;;;1.75;;
23140;SDS011;11739;54.750;9.124;2023-07-24T03:37:14;4.80;;;1.30;;
23140;SDS011;11739;54.750;9.124;2023-07-24T03:39:39;5.10;;;1.30;;
23140;SDS011;11739;54.750;9.124;2023-07-24T03:42:04;5.10;;;1.65;;
23140;SDS011;11739;54.750;9.124;2023-07-24T03:44:30;6.50;;;1.50;;
23140;SDS011;11739;54.750;9.124;2023-07-24T03:46:55;5.47;;;1.45;;
23140;SDS011;11739;54.750;9.124;2023-07-24T03:49:20;5.18;;;1.70;;
23140;SDS011;11739;54.750;9.124;2023-07-24T03:51:46;5.75;;;1.60;;
23140;SDS011;11739;54.750;9.124;2023-07-24T03:54:11;4.50;;;1.98;;
23140;SDS011;11739;54.750;9.124;2023-07-24T03:56:36;5.22;;;1.92;;
23140;SDS011;11739;54.750;9.124;2023-07-24T03:59:02;6.40;;;2.20;;
23140;SDS011;11739;54.750;9.124;2023-07-24T04:01:27;3.35;;;1.55;;
23140;SDS011;11739;54.750;9.124;2023-07-24T04:03:52;6.53;;;1.77;;
23140;SDS011;11739;54.750;9.124;2023-07-24T04:06:17;4.38;;;1.55;;
23140;SDS011;11739;54.750;9.124;2023-07-24T04:08:43;10.57;;;2.33;;
23140;SDS011;11739;54.750;9.124;2023-07-24T04:11:08;8.85;;;1.83;;
23140;SDS011;11739;54.750;9.124;2023-07-24T04:13:33;3.63;;;1.50;;
23140;SDS011;11739;54.750;9.124;2023-07-24T04:15:59;5.15;;;1.88;;
23140;SDS011;11739;54.750;9.124;2023-07-24T04:18:24;5.63;;;1.90;;
23140;SDS011;11739;54.750;9.124;2023-07-24T04:20:49;4.07;;;1.50;;
23140;SDS011;11739;54.750;9.124;2023-07-24T04:23:15;5.10;;;1.58;;
23140;SDS011;11739;54.750;9.124;2023-07-24T04:25:40;4.80;;;1.80;;
23140;SDS011;11739;54.750;9.124;2023-07-24T04:28:05;5.32;;;1.77;;
23140;SDS011;11739;54.750;9.124;2023-07-24T04:30:30;3.00;;;1.45;;
23140;SDS011;11739;54.750;9.124;2023-07-24T04:32:56;2.33;;;1.23;;
23140;SDS011;11739;54.750;9.124;2023-07-24T04:35:21;6.20;;;1.55;;
23140;SDS011;11739;54.750;9.124;2023-07-24T04:37:46;4.80;;;1.40;;
23140;SDS011;11739;54.750;9.124;2023-07-24T04:40:12;4.20;;;1.45;;
23140;SDS011;11739;54.750;9.124;2023-07-24T04:42:37;5.50;;;1.60;;
23140;SDS011;11739;54.750;9.124;2023-07-24T04:45:03;5.60;;;1.88;;
23140;SDS011;11739;54.750;9.124;2023-07-24T04:47:28;4.63;;;1.40;;
23140;SDS011;11739;54.750;9.124;2023-07-24T04:49:54;3.55;;;1.42;;
23140;SDS011;11739;54.750;9.124;2023-07-24T04:52:19;2.97;;;1.25;;
23140;SDS011;11739;54.750;9.124;2023-07-24T04:54:44;3.75;;;1.80;;
23140;SDS011;11739;54.750;9.124;2023-07-24T04:57:10;4.70;;;1.48;;
23140;SDS011;11739;54.750;9.124;2023-07-24T04:59:35;5.68;;;1.70;;
23140;SDS011;11739;54.750;9.124;2023-07-24T05:02:00;5.38;;;1.65;;
23140;SDS011;11739;54.750;9.124;2023-07-24T05:04:25;4.28;;;1.52;;
23140;SDS011;11739;54.750;9.124;2023-07-24T05:06:51;4.47;;;1.63;;
23140;SDS011;11739;54.750;9.124;2023-07-24T05:09:16;3.38;;;1.60;;
23140;SDS011;11739;54.750;9.124;2023-07-24T05:11:41;3.10;;;1.60;;
23140;SDS011;11739;54.750;9.124;2023-07-24T05:14:07;3.47;;;1.35;;
23140;SDS011;11739;54.750;9.124;2023-07-24T05:16:32;4.20;;;1.42;;
23140;SDS011;11739;54.750;9.124;2023-07-24T05:18:57;3.63;;;1.40;;
23140;SDS011;11739;54.750;9.124;2023-07-24T05:21:23;3.92;;;1.40;;
23140;SDS011;11739;54.750;9.124;2023-07-24T05:23:48;2.78;;;1.35;;
23140;SDS011;11739;54.750;9.124;2023-07-24T05:26:13;4.30;;;1.52;;
23140;SDS011;11739;54.750;9.124;2023-07-24T05:28:38;2.90;;;1.27;;
23140;SDS011;11739;54.750;9.124;2023-07-24T05:31:04;1.95;;;1.35;;
23140;SDS011;11739;54.750;9.124;2023-07-24T05:33:30;3.47;;;1.27;;
23140;SDS011;11739;54.750;9.124;2023-07-24T05:35:59;4.28;;;1.30;;
23140;SDS011;11739;54.750;9.124;2023-07-24T05:38:25;3.00;;;1.25;;
23140;SDS011;11739;54.750;9.124;2023-07-24T05:40:54;4.15;;;1.58;;
23140;SDS011;11739;54.750;9.124;2023-07-24T05:43:20;4.20;;;1.45;;
23140;SDS011;11739;54.750;9.124;2023-07-24T05:45:46;4.75;;;1.48;;
23140;SDS011;11739;54.750;9.124;2023-07-24T05:48:11;5.88;;;1.60;;
23140;SDS011;11739;54.750;9.124;2023-07-24T05:50:36;6.47;;;1.40;;
23140;SDS011;11739;54.750;9.124;2023-07-24T05:53:01;4.22;;;1.67;;
23140;SDS011;11739;54.750;9.124;2023-07-24T05:55:27;5.68;;;1.70;;
23140;SDS011;11739;54.750;9.124;2023-07-24T05:57:52;4.18;;;1.73;;
23140;SDS011;11739;54.750;9.124;2023-07-24T06:00:18;3.08;;;1.55;;
23140;SDS011;11739;54.750;9.124;2023-07-24T06:02:43;5.32;;;1.70;;
23140;SDS011;11739;54.750;9.124;2023-07-24T06:05:09;4.65;;;1.52;;
23140;SDS011;11739;54.750;9.124;2023-07-24T06:07:34;6.22;;;1.70;;
23140;SDS011;11739;54.750;9.124;2023-07-24T06:09:59;4.32;;;1.67;;
23140;SDS011;11739;54.750;9.124;2023-07-24T06:12:24;6.20;;;1.75;;
23140;SDS011;11739;54.750;9.124;2023-07-24T06:14:50;3.67;;;1.60;;
23140;SDS011;11739;54.750;9.124;2023-07-24T06:17:15;6.07;;;1.50;;
23140;SDS011;11739;54.750;9.124;2023-07-24T06:19:40;2.55;;;1.30;;
23140;SDS011;11739;54.750;9.124;2023-07-24T06:22:06;5.05;;;1.52;;
23140;SDS011;11739;54.750;9.124;2023-07-24T06:24:32;4.20;;;1.58;;
23140;SDS011;11739;54.750;9.124;2023-07-24T06:26:57;4.32;;;1.58;;
23140;SDS011;11739;54.750;9.124;2023-07-24T06:29:22;2.78;;;1.60;;
23140;SDS011;11739;54.750;9.124;2023-07-24T06:31:48;4.38;;;1.30;;
23140;SDS011;11739;54.750;9.124;2023-07-24T06:34:13;3.75;;;1.45;;
23140;SDS011;11739;54.750;9.124;2023-07-24T06:36:38;3.10;;;1.25;;
23140;SDS011;11739;54.750;9.124;2023-07-24T06:39:04;3.78;;;1.65;;
23140;SDS011;11739;54.750;9.124;2023-07-24T06:41:29;3.78;;;1.42;;
23140;SDS011;11739;54.750;9.124;2023-07-24T06:43:54;4.47;;;1.42;;
23140;SDS011;11739;54.750;9.124;2023-07-24T06:46:19;3.95;;;1.67;;
23140;SDS011;11739;54.750;9.124;2023-07-24T06:48:45;4.20;;;1.40;;
23140;SDS011;11739;54.750;9.124;2023-07-24T06:51:10;3.60;;;1.25;;
23140;SDS011;11739;54.750;9.124;2023-07-24T06:53:35;4.70;;;1.25;;
23140;SDS011;11739;54.750;9.124;2023-07-24T06:56:01;4.15;;;1.40;;
23140;SDS011;11739;54.750;9.124;2023-07-24T06:58:26;3.45;;;1.25;;
23140;SDS011;11739;54.750;9.124;2023-07-24T07:00:51;3.75;;;1.50;;
23140;SDS011;11739;54.750;9.124;2023-07-24T07:03:16;4.63;;;1.35;;
23140;SDS011;11739;54.750;9.124;2023-07-24T07:05:42;4.25;;;1.58;;
23140;SDS011;11739;54.750;9.124;2023-07-24T07:08:07;4.65;;;1.42;;
23140;SDS011;11739;54.750;9.124;2023-07-24T07:10:33;3.25;;;1.55;;
23140;SDS011;11739;54.750;9.124;2023-07-24T07:12:58;4.38;;;1.60;;
23140;SDS011;11739;54.750;9.124;2023-07-24T07:15:23;5.00;;;1.30;;
23140;SDS011;11739;54.750;9.124;2023-07-24T07:17:48;3.97;;;1.30;;
23140;SDS011;11739;54.750;9.124;2023-07-24T07:20:14;3.30;;;1.40;;
23140;SDS011;11739;54.750;9.124;2023-07-24T07:22:39;2.53;;;1.33;;
23140;SDS011;11739;54.750;9.124;2023-07-24T07:25:04;2.55;;;1.33;;
23140;SDS011;11739;54.750;9.124;2023-07-24T07:27:30;3.15;;;1.45;;
23140;SDS011;11739;54.750;9.124;2023-07-24T07:29:55;3.20;;;1.42;;
23140;SDS011;11739;54.750;9.124;2023-07-24T07:32:20;3.90;;;1.40;;
23140;SDS011;11739;54.750;9.124;2023-07-24T07:34:46;5.22;;;1.65;;
23140;SDS011;11739;54.750;9.124;2023-07-24T07:37:11;3.88;;;1.60;;
23140;SDS011;11739;54.750;9.124;2023-07-24T07:39:36;3.95;;;1.40;;
23140;SDS011;11739;54.750;9.124;2023-07-24T07:42:02;4.53;;;1.73;;
23140;SDS011;11739;54.750;9.124;2023-07-24T07:44:27;4.43;;;1.80;;
23140;SDS011;11739;54.750;9.124;2023-07-24T07:46:52;3.78;;;1.60;;
23140;SDS011;11739;54.750;9.124;2023-07-24T07:49:17;4.85;;;1.77;;
23140;SDS011;11739;54.750;9.124;2023-07-24T07:51:43;5.07;;;1.73;;
23140;SDS011;11739;54.750;9.124;2023-07-24T07:54:08;6.20;;;1.50;;
23140;SDS011;11739;54.750;9.124;2023-07-24T07:56:33;2.95;;;1.80;;
23140;SDS011;11739;54.750;9.124;2023-07-24T07:58:59;4.53;;;1.85;;
23140;SDS011;11739;54.750;9.124;2023-07-24T08:01:24;3.80;;;1.60;;
23140;SDS011;11739;54.750;9.124;2023-07-24T08:03:49;4.68;;;1.80;;
23140;SDS011;11739;54.750;9.124;2023-07-24T08:06:15;2.58;;;1.45;;
23140;SDS011;11739;54.750;9.124;2023-07-24T08:08:40;4.28;;;1.85;;
23140;SDS011;11739;54.750;9.124;2023-07-24T08:11:06;3.80;;;1.85;;
23140;SDS011;11739;54.750;9.124;2023-07-24T08:13:31;6.38;;;2.28;;
23140;SDS011;11739;54.750;9.124;2023-07-24T08:15:57;4.57;;;1.90;;
23140;SDS011;11739;54.750;9.124;2023-07-24T08:18:25;5.50;;;2.13;;
23140;SDS011;11739;54.750;9.124;2023-07-24T08:20:50;6.90;;;2.33;;
23140;SDS011;11739;54.750;9.124;2023-07-24T08:23:16;5.53;;;2.20;;
23140;SDS011;11739;54.750;9.124;2023-07-24T08:25:50;5.15;;;2.22;;
23140;SDS011;11739;54.750;9.124;2023-07-24T08:28:16;5.15;;;2.03;;
23140;SDS011;11739;54.750;9.124;2023-07-24T08:30:41;5.05;;;2.35;;
23140;SDS011;11739;54.750;9.124;2023-07-24T08:33:06;6.57;;;2.30;;
23140;SDS011;11739;54.750;9.124;2023-07-24T08:35:32;5.45;;;2.35;;
23140;SDS011;11739;54.750;9.124;2023-07-24T08:37:57;5.22;;;2.10;;
23140;SDS011;11739;54.750;9.124;2023-07-24T08:40:22;4.97;;;2.70;;
23140;SDS011;11739;54.750;9.124;2023-07-24T08:42:49;7.20;;;2.92;;
23140;SDS011;11739;54.750;9.124;2023-07-24T08:45:14;6.30;;;2.83;;
23140;SDS011;11739;54.750;9.124;2023-07-24T08:47:41;6.45;;;2.22;;
23140;SDS011;11739;54.750;9.124;2023-07-24T08:50:08;5.40;;;2.40;;
23140;SDS011;11739;54.750;9.124;2023-07-24T08:52:33;5.63;;;2.35;;
23140;SDS011;11739;54.750;9.124;2023-07-24T08:54:59;7.90;;;2.60;;
23140;SDS011;11739;54.750;9.124;2023-07-24T08:57:26;3.22;;;1.90;;
23140;SDS011;11739;54.750;9.124;2023-07-24T08:59:52;5.03;;;2.42;;
23140;SDS011;11739;54.750;9.124;2023-07-24T09:02:17;5.07;;;2.40;;
23140;SDS011;11739;54.750;9.124;2023-07-24T09:04:42;5.28;;;2.35;;
23140;SDS011;11739;54.750;9.124;2023-07-24T09:07:07;5.82;;;2.55;;
23140;SDS011;11739;54.750;9.124;2023-07-24T09:09:33;5.15;;;2.28;;
23140;SDS011;11739;54.750;9.124;2023-07-24T09:11:58;5.57;;;2.40;;
23140;SDS011;11739;54.750;9.124;2023-07-24T09:14:24;5.93;;;2.38;;
23140;SDS011;11739;54.750;9.124;2023-07-24T09:17:01;6.07;;;2.47;;
23140;SDS011;11739;54.750;9.124;2023-07-24T09:19:35;7.57;;;2.28;;
23140;SDS011;11739;54.750;9.124;2023-07-24T09:22:07;6.15;;;2.30;;
23140;SDS011;11739;54.750;9.124;2023-07-24T09:24:36;5.88;;;2.03;;
23140;SDS011;11739;54.750;9.124;2023-07-24T09:27:04;5.10;;;2.60;;
23140;SDS011;11739;54.750;9.124;2023-07-24T09:29:30;3.55;;;2.03;;
23140;SDS011;11739;54.750;9.124;2023-07-24T09:31:56;5.10;;;2.13;;
23140;SDS011;11739;54.750;9.124;2023-07-24T09:34:22;4.40;;;2.00;;
23140;SDS011;11739;54.750;9.124;2023-07-24T09:36:47;3.67;;;1.83;;
23140;SDS011;11739;54.750;9.124;2023-07-24T09:39:12;4.30;;;1.77;;
23140;SDS011;11739;54.750;9.124;2023-07-24T09:41:41;5.53;;;1.98;;
23140;SDS011;11739;54.750;9.124;2023-07-24T09:44:06;5.63;;;1.80;;
23140;SDS011;11739;54.750;9.124;2023-07-24T09:46:32;6.20;;;1.85;;
23140;SDS011;11739;54.750;9.124;2023-07-24T09:48:57;3.47;;;1.95;;
23140;SDS011;11739;54.750;9.124;2023-07-24T09:51:23;4.07;;;2.10;;
23140;SDS011;11739;54.750;9.124;2023-07-24T09:53:55;4.57;;;1.90;;
23140;SDS011;11739;54.750;9.124;2023-07-24T09:56:23;4.40;;;1.92;;
23140;SDS011;11739;54.750;9.124;2023-07-24T09:58:48;3.58;;;1.95;;
23140;SDS011;11739;54.750;9.124;2023-07-24T10:01:14;3.72;;;1.73;;
23140;SDS011;11739;54.750;9.124;2023-07-24T10:03:43;7.65;;;2.00;;
23140;SDS011;11739;54.750;9.124;2023-07-24T10:06:11;3.28;;;1.73;;
23140;SDS011;11739;54.750;9.124;2023-07-24T10:08:36;4.50;;;1.75;;
23140;SDS011;11739;54.750;9.124;2023-07-24T10:11:03;3.42;;;1.70;;
23140;SDS011;11739;54.750;9.124;2023-07-24T10:13:28;4.25;;;2.08;;
23140;SDS011;11739;54.750;9.124;2023-07-24T10:15:56;3.25;;;1.73;;
23140;SDS011;11739;54.750;9.124;2023-07-24T10:18:28;4.43;;;1.83;;
23140;SDS011;11739;54.750;9.124;2023-07-24T10:21:03;4.20;;;1.77;;
23140;SDS011;11739;54.750;9.124;2023-07-24T10:23:29;5.25;;;1.83;;
23140;SDS011;11739;54.750;9.124;2023-07-24T10:25:55;3.58;;;2.20;;
23140;SDS011;11739;54.750;9.124;2023-07-24T10:28:29;4.22;;;2.17;;
23140;SDS011;11739;54.750;9.124;2023-07-24T10:30:58;3.50;;;1.73;;
23140;SDS011;11739;54.750;9.124;2023-07-24T10:33:24;4.88;;;1.90;;
23140;SDS011;11739;54.750;9.124;2023-07-24T10:35:53;3.92;;;1.67;;
23140;SDS011;11739;54.750;9.124;2023-07-24T10:38:19;4.30;;;1.88;;
23140;SDS011;11739;54.750;9.124;2023-07-24T10:40:45;3.28;;;2.00;;
23140;SDS011;11739;54.750;9.124;2023-07-24T10:43:12;5.32;;;1.70;;
23140;SDS011;11739;54.750;9.124;2023-07-24T10:45:45;3.38;;;1.52;;
23140;SDS011;11739;54.750;9.124;2023-07-24T10:48:15;3.53;;;1.83;;
23140;SDS011;11739;54.750;9.124;2023-07-24T10:50:42;2.72;;;1.45;;
23140;SDS011;11739;54.750;9.124;2023-07-24T10:53:09;2.88;;;1.60;;
23140;SDS011;11739;54.750;9.124;2023-07-24T10:55:35;4.53;;;1.40;;
23140;SDS011;11739;54.750;9.124;2023-07-24T10:58:01;4.32;;;1.63;;
23140;SDS011;11739;54.750;9.124;2023-07-24T11:00:26;5.25;;;1.50;;
23140;SDS011;11739;54.750;9.124;2023-07-24T11:02:52;2.35;;;1.30;;
23140;SDS011;11739;54.750;9.124;2023-07-24T11:05:18;2.80;;;1.40;;
23140;SDS011;11739;54.750;9.124;2023-07-24T11:07:43;3.83;;;1.30;;
23140;SDS011;11739;54.750;9.124;2023-07-24T11:10:14;2.88;;;1.50;;
23140;SDS011;11739;54.750;9.124;2023-07-24T11:12:43;2.88;;;1.40;;
23140;SDS011;11739;54.750;9.124;2023-07-24T11:15:08;4.70;;;1.55;;
23140;SDS011;11739;54.750;9.124;2023-07-24T11:17:34;3.15;;;1.42;;
23140;SDS011;11739;54.750;9.124;2023-07-24T11:20:11;2.83;;;1.45;;
23140;SDS011;11739;54.750;9.124;2023-07-24T11:22:40;4.07;;;1.50;;
23140;SDS011;11739;54.750;9.124;2023-07-24T11:25:06;2.90;;;1.40;;
23140;SDS011;11739;54.750;9.124;2023-07-24T11:27:32;3.42;;;1.52;;
23140;SDS011;11739;54.750;9.124;2023-07-24T11:29:57;3.45;;;1.58;;
23140;SDS011;11739;54.750;9.124;2023-07-24T11:32:22;3.53;;;1.50;;
23140;SDS011;11739;54.750;9.124;2023-07-24T11:34:48;2.72;;;1.70;;
23140;SDS011;11739;54.750;9.124;2023-07-24T11:37:14;3.20;;;1.55;;
23140;SDS011;11739;54.750;9.124;2023-07-24T11:39:39;3.92;;;1.70;;
23140;SDS011;11739;54.750;9.124;2023-07-24T11:42:05;3.92;;;1.35;;
23140;SDS011;11739;54.750;9.124;2023-07-24T11:44:30;2.28;;;1.35;;
23140;SDS011;11739;54.750;9.124;2023-07-24T11:49:28;3.08;;;1.30;;
23140;SDS011;11739;54.750;9.124;2023-07-24T11:51:58;3.80;;;1.48;;
23140;SDS011;11739;54.750;9.124;2023-07-24T11:54:24;5.93;;;1.80;;
23140;SDS011;11739;54.750;9.124;2023-07-24T11:56:50;3.88;;;1.77;;
23140;SDS011;11739;54.750;9.124;2023-07-24T11:59:15;2.65;;;1.63;;
23140;SDS011;11739;54.750;9.124;2023-07-24T12:01:41;2.83;;;1.67;;
23140;SDS011;11739;54.750;9.124;2023-07-24T12:04:06;2.65;;;1.63;;
23140;SDS011;11739;54.750;9.124;2023-07-24T12:06:32;4.72;;;1.70;;
23140;SDS011;11739;54.750;9.124;2023-07-24T12:09:03;2.80;;;1.73;;
23140;SDS011;11739;54.750;9.124;2023-07-24T12:11:29;3.08;;;1.80;;
23140;SDS011;11739;54.750;9.124;2023-07-24T12:13:55;4.78;;;1.50;;
23140;SDS011;11739;54.750;9.124;2023-07-24T12:16:21;4.25;;;1.58;;
23140;SDS011;11739;54.750;9.124;2023-07-24T12:18:46;2.53;;;1.48;;
23140;SDS011;11739;54.750;9.124;2023-07-24T12:21:11;5.10;;;1.60;;
23140;SDS011;11739;54.750;9.124;2023-07-24T12:23:36;2.45;;;1.52;;
23140;SDS011;11739;54.750;9.124;2023-07-24T12:26:02;4.53;;;1.63;;
23140;SDS011;11739;54.750;9.124;2023-07-24T12:28:27;2.97;;;1.58;;
23140;SDS011;11739;54.750;9.124;2023-07-24T12:30:52;4.70;;;1.55;;
23140;SDS011;11739;54.750;9.124;2023-07-24T12:33:18;2.63;;;1.45;;
23140;SDS011;11739;54.750;9.124;2023-07-24T12:35:43;2.75;;;1.40;;
23140;SDS011;11739;54.750;9.124;2023-07-24T12:38:08;4.45;;;1.63;;
23140;SDS011;11739;54.750;9.124;2023-07-24T12:40:34;3.80;;;1.50;;
23140;SDS011;11739;54.750;9.124;2023-07-24T12:42:59;2.80;;;1.55;;
23140;SDS011;11739;54.750;9.124;2023-07-24T12:45:24;2.03;;;1.20;;
23140;SDS011;11739;54.750;9.124;2023-07-24T12:47:50;2.55;;;1.38;;
23140;SDS011;11739;54.750;9.124;2023-07-24T12:50:15;2.75;;;1.42;;
23140;SDS011;11739;54.750;9.124;2023-07-24T12:52:40;3.00;;;1.10;;
23140;SDS011;11739;54.750;9.124;2023-07-24T12:55:08;4.47;;;1.92;;
23140;SDS011;11739;54.750;9.124;2023-07-24T12:57:34;2.38;;;1.35;;
23140;SDS011;11739;54.750;9.124;2023-07-24T12:59:59;3.47;;;1.50;;
23140;SDS011;11739;54.750;9.124;2023-07-24T13:02:24;2.33;;;1.30;;
23140;SDS011;11739;54.750;9.124;2023-07-24T13:04:49;3.63;;;1.58;;
23140;SDS011;11739;54.750;9.124;2023-07-24T13:07:15;2.95;;;1.30;;
23140;SDS011;11739;54.750;9.124;2023-07-24T13:09:40;4.95;;;1.85;;
23140;SDS011;11739;54.750;9.124;2023-07-24T13:12:06;3.65;;;1.55;;
23140;SDS011;11739;54.750;9.124;2023-07-24T13:14:31;3.15;;;1.50;;
23140;SDS011;11739;54.750;9.124;2023-07-24T13:16:57;3.65;;;1.40;;
23140;SDS011;11739;54.750;9.124;2023-07-24T13:19:22;2.95;;;1.60;;
23140;SDS011;11739;54.750;9.124;2023-07-24T13:21:47;3.35;;;1.55;;
23140;SDS011;11739;54.750;9.124;2023-07-24T13:24:12;4.53;;;1.80;;
23140;SDS011;11739;54.750;9.124;2023-07-24T13:26:38;3.97;;;1.73;;
23140;SDS011;11739;54.750;9.124;2023-07-24T13:29:03;3.92;;;1.70;;
23140;SDS011;11739;54.750;9.124;2023-07-24T13:31:28;4.35;;;1.60;;
23140;SDS011;11739;54.750;9.124;2023-07-24T13:33:55;2.83;;;1.70;;
23140;SDS011;11739;54.750;9.124;2023-07-24T13:36:21;2.65;;;1.45;;
23140;SDS011;11739;54.750;9.124;2023-07-24T13:38:46;3.83;;;1.50;;
23140;SDS011;11739;54.750;9.124;2023-07-24T13:41:11;3.58;;;1.52;;
23140;SDS011;11739;54.750;9.124;2023-07-24T13:43:37;4.95;;;1.98;;
23140;SDS011;11739;54.750;9.124;2023-07-24T13:46:02;4.50;;;1.67;;
23140;SDS011;11739;54.750;9.124;2023-07-24T13:48:27;4.13;;;2.05;;
23140;SDS011;11739;54.750;9.124;2023-07-24T13:50:53;4.85;;;1.80;;
23140;SDS011;11739;54.750;9.124;2023-07-24T13:53:18;2.72;;;1.63;;
23140;SDS011;11739;54.750;9.124;2023-07-24T13:55:43;4.05;;;1.70;;
23140;SDS011;11739;54.750;9.124;2023-07-24T13:58:09;3.92;;;1.58;;
23140;SDS011;11739;54.750;9.124;2023-07-24T14:00:34;4.78;;;1.60;;
23140;SDS011;11739;54.750;9.124;2023-07-24T14:03:00;4.55;;;1.60;;
23140;SDS011;11739;54.750;9.124;2023-07-24T14:05:25;3.33;;;1.40;;
23140;SDS011;11739;54.750;9.124;2023-07-24T14:07:51;4.47;;;1.58;;
23140;SDS011;11739;54.750;9.124;2023-07-24T14:10:16;2.63;;;1.10;;
23140;SDS011;11739;54.750;9.124;2023-07-24T14:12:41;3.55;;;1.40;;
23140;SDS011;11739;54.750;9.124;2023-07-24T14:15:07;5.00;;;1.52;;
23140;SDS011;11739;54.750;9.124;2023-07-24T14:17:32;2.53;;;1.35;;
23140;SDS011;11739;54.750;9.124;2023-07-24T14:19:58;3.50;;;1.55;;
23140;SDS011;11739;54.750;9.124;2023-07-24T14:22:23;2.63;;;1.23;;
23140;SDS011;11739;54.750;9.124;2023-07-24T14:24:48;2.38;;;1.30;;
23140;SDS011;11739;54.750;9.124;2023-07-24T14:27:14;3.25;;;1.38;;
23140;SDS011;11739;54.750;9.124;2023-07-24T14:29:39;4.68;;;1.70;;
23140;SDS011;11739;54.750;9.124;2023-07-24T14:32:05;3.72;;;1.30;;
23140;SDS011;11739;54.750;9.124;2023-07-24T14:34:30;1.83;;;1.25;;
23140;SDS011;11739;54.750;9.124;2023-07-24T14:36:56;3.13;;;0.95;;
23140;SDS011;11739;54.750;9.124;2023-07-24T14:39:21;4.18;;;1.48;;
23140;SDS011;11739;54.750;9.124;2023-07-24T14:41:46;1.70;;;1.10;;
23140;SDS011;11739;54.750;9.124;2023-07-24T14:44:12;3.28;;;1.52;;